createdAt,value
2022-08-26T00:01:38.671Z,100964.13
2022-08-26T00:04:06.163Z,100957.75
2022-08-26T00:06:33.760Z,100952.38
2022-08-26T00:09:03.690Z,100949.84
2022-08-26T00:11:35.460Z,100953.38
2022-08-26T00:14:02.903Z,100952.53
2022-08-26T00:16:31.233Z,100956.06
2022-08-26T00:18:58.827Z,100954.38
2022-08-26T00:21:26.504Z,100951.69
2022-08-26T00:23:54.756Z,100954.38
2022-08-26T00:26:23.660Z,100947.34
2022-08-26T00:28:56.458Z,100949.00
2022-08-26T00:31:23.963Z,100948.16
2022-08-26T00:33:51.437Z,100943.63
2022-08-26T00:36:20.313Z,100944.47
2022-08-26T00:38:48.030Z,100941.97
2022-08-26T00:41:17.021Z,100944.66
2022-08-26T00:43:47.687Z,100941.97
2022-08-26T00:46:16.992Z,100939.44
2022-08-26T00:48:45.034Z,100932.38
2022-08-26T00:51:15.689Z,100929.50
2022-08-26T00:53:45.396Z,100930.53
2022-08-26T00:56:15.969Z,100931.38
2022-08-26T00:58:45.309Z,100933.22
2022-08-26T01:01:14.242Z,100927.84
2022-08-26T01:03:41.823Z,100926.16
2022-08-26T01:06:12.503Z,100929.69
2022-08-26T01:08:40.518Z,100931.53
2022-08-26T01:11:08.012Z,100925.34
2022-08-26T01:13:35.666Z,100924.47
2022-08-26T01:16:04.205Z,100926.16
2022-08-26T01:18:33.078Z,100923.66
2022-08-26T01:21:02.863Z,100928.19
2022-08-26T01:23:34.336Z,100930.72
2022-08-26T01:26:03.843Z,100929.03
2022-08-26T01:28:32.728Z,100930.72
2022-08-26T01:31:02.432Z,100927.38
2022-08-26T01:33:30.979Z,100923.66
2022-08-26T01:36:09.801Z,100924.47
2022-08-26T01:38:38.500Z,100928.19
2022-08-26T01:41:16.378Z,100921.13
2022-08-26T01:43:47.902Z,100916.41
2022-08-26T01:46:15.977Z,100917.44
2022-08-26T01:48:43.700Z,100921.13
2022-08-26T01:51:11.516Z,100923.00
2022-08-26T01:53:41.782Z,100914.91
2022-08-26T01:56:13.585Z,100913.22
2022-08-26T01:58:43.293Z,100915.75
2022-08-26T02:01:10.812Z,100917.59
2022-08-26T02:03:43.072Z,100915.91
2022-08-26T02:06:10.565Z,100912.41
2022-08-26T02:08:40.592Z,100914.91
2022-08-26T02:11:08.055Z,100912.41
2022-08-26T02:13:37.824Z,100913.41
2022-08-26T02:16:05.346Z,100918.78
2022-08-26T02:18:36.737Z,100915.91
2022-08-26T02:21:06.613Z,100922.34
2022-08-26T02:23:34.326Z,100913.41
2022-08-26T02:26:04.593Z,100906.19
2022-08-26T02:28:34.057Z,100905.34
2022-08-26T02:31:02.701Z,100911.75
2022-08-26T02:33:30.269Z,100903.69
2022-08-26T02:35:57.954Z,100907.19
2022-08-26T02:38:26.027Z,100909.06
2022-08-26T02:40:53.473Z,100914.44
2022-08-26T02:43:23.831Z,100909.06
2022-08-26T02:46:00.802Z,100906.38
2022-08-26T02:48:29.316Z,100908.22
2022-08-26T02:50:56.753Z,100910.06
2022-08-26T02:53:25.473Z,100903.03
2022-08-26T02:55:53.134Z,100893.91
2022-08-26T02:58:22.152Z,100894.09
2022-08-26T03:00:53.409Z,100892.25
2022-08-26T03:03:22.515Z,100900.34
2022-08-26T03:05:51.217Z,100896.78
2022-08-26T03:08:18.669Z,100890.56
2022-08-26T03:10:46.435Z,100903.03
2022-08-26T03:13:15.544Z,100890.56
2022-08-26T03:15:44.338Z,100891.56
2022-08-26T03:18:13.624Z,100898.66
2022-08-26T03:20:41.072Z,100885.38
2022-08-26T03:23:09.086Z,100881.84
2022-08-26T03:25:36.642Z,100885.38
2022-08-26T03:28:04.245Z,100886.19
2022-08-26T03:30:45.377Z,100880.00
2022-08-26T03:33:14.898Z,100878.34
2022-08-26T03:35:43.399Z,100879.16
2022-08-26T03:38:10.877Z,100871.91
2022-08-26T03:40:38.668Z,100869.41
2022-08-26T03:43:06.660Z,100868.41
2022-08-26T03:45:37.820Z,100881.84
2022-08-26T03:48:05.277Z,100872.94
2022-08-26T03:50:35.630Z,100871.28
2022-08-26T03:53:03.437Z,100869.56
2022-08-26T03:55:32.394Z,100868.56
2022-08-26T03:58:00.673Z,100875.81
2022-08-26T04:00:28.120Z,100866.72
2022-08-26T04:02:56.085Z,100867.75
2022-08-26T04:05:23.886Z,100871.28
2022-08-26T04:07:53.002Z,100868.75
2022-08-26T04:10:22.478Z,100872.25
2022-08-26T04:13:06.340Z,100871.44
2022-08-26T04:15:34.272Z,100874.13
2022-08-26T04:18:01.773Z,100874.13
2022-08-26T04:20:29.228Z,100870.63
2022-08-26T04:22:57.942Z,100874.97
2022-08-26T04:25:25.408Z,100867.91
2022-08-26T04:27:53.034Z,100878.69
2022-08-26T04:30:21.126Z,100874.13
2022-08-26T04:32:48.747Z,100868.75
2022-08-26T04:35:16.204Z,100867.06
2022-08-26T04:37:44.823Z,100865.41
2022-08-26T04:40:13.774Z,100866.25
2022-08-26T04:42:41.273Z,100867.06
2022-08-26T04:45:10.036Z,100867.06
2022-08-26T04:47:38.059Z,100871.44
2022-08-26T04:50:06.897Z,100863.38
2022-08-26T04:52:35.531Z,100865.41
2022-08-26T04:55:03.043Z,100861.69
2022-08-26T04:57:34.675Z,100865.22
2022-08-26T05:00:02.127Z,100864.38
2022-08-26T05:02:31.467Z,100856.31
2022-08-26T05:04:58.911Z,100860.03
2022-08-26T05:07:26.775Z,100863.38
2022-08-26T05:09:54.321Z,100864.38
2022-08-26T05:12:21.967Z,100862.53
2022-08-26T05:14:50.686Z,100860.84
2022-08-26T05:17:19.362Z,100868.75
2022-08-26T05:19:47.101Z,100867.06
2022-08-26T05:22:14.886Z,100873.13
2022-08-26T05:24:43.175Z,100879.50
2022-08-26T05:27:11.787Z,100882.19
2022-08-26T05:29:40.070Z,100883.03
2022-08-26T05:32:08.856Z,100876.66
2022-08-26T05:34:38.741Z,100887.41
2022-08-26T05:37:06.530Z,100881.19
2022-08-26T05:39:34.113Z,100885.53
2022-08-26T05:42:02.210Z,100883.88
2022-08-26T05:44:29.925Z,100883.03
2022-08-26T05:47:18.645Z,100885.72
2022-08-26T05:49:49.454Z,100884.88
2022-08-26T05:52:19.140Z,100888.22
2022-08-26T05:54:46.596Z,100884.88
2022-08-26T05:57:15.264Z,100885.72
2022-08-26T05:59:42.715Z,100887.56
2022-08-26T06:02:10.461Z,100886.56
2022-08-26T06:04:39.324Z,100885.72
2022-08-26T06:07:07.419Z,100885.72
2022-08-26T06:09:39.617Z,100884.72
2022-08-26T06:12:07.241Z,100886.19
2022-08-26T06:14:36.047Z,100883.50
2022-08-26T06:17:03.534Z,100887.88
2022-08-26T06:19:32.950Z,100880.66
2022-08-26T06:22:23.791Z,100878.81
2022-08-26T06:25:08.991Z,100881.13
2022-08-26T06:27:37.449Z,100876.59
2022-08-26T06:30:05.535Z,100874.75
2022-08-26T06:32:33.798Z,100876.44
2022-08-26T06:35:01.607Z,100871.88
2022-08-26T06:37:30.348Z,100872.34
2022-08-26T06:39:57.845Z,100871.16
2022-08-26T06:42:25.308Z,100868.28
2022-08-26T06:44:52.767Z,100867.63
2022-08-26T06:47:20.468Z,100875.34
2022-08-26T06:49:48.199Z,100875.34
2022-08-26T06:52:22.534Z,100877.03
2022-08-26T06:54:53.261Z,100870.59
2022-08-26T06:57:20.694Z,100871.47
2022-08-26T06:59:51.203Z,100865.88
2022-08-26T07:02:19.469Z,100874.63
2022-08-26T07:04:48.355Z,100870.91
2022-08-26T07:07:18.742Z,100865.69
2022-08-26T07:09:49.517Z,100874.47
2022-08-26T07:12:21.559Z,100872.59
2022-08-26T07:14:49.507Z,100874.25
2022-08-26T07:17:16.995Z,100872.25
2022-08-26T07:19:45.895Z,100871.22
2022-08-26T07:22:13.404Z,100873.91
2022-08-26T07:24:42.501Z,100865.66
2022-08-26T07:27:10.890Z,100866.94
2022-08-26T07:29:40.074Z,100868.81
2022-08-26T07:32:07.783Z,100864.06
2022-08-26T07:34:35.267Z,100859.56
2022-08-26T07:37:03.671Z,100865.44
2022-08-26T07:39:31.337Z,100862.75
2022-08-26T07:41:59.424Z,100859.19
2022-08-26T07:44:27.748Z,100857.19
2022-08-26T07:46:56.455Z,100855.31
2022-08-26T07:49:25.038Z,100859.72
2022-08-26T07:51:52.881Z,100864.69
2022-08-26T07:54:20.314Z,100851.91
2022-08-26T07:56:54.048Z,100848.19
2022-08-26T07:59:23.412Z,100858.13
2022-08-26T08:01:50.947Z,100855.72
2022-08-26T08:04:25.530Z,100851.53
2022-08-26T08:06:53.896Z,100847.84
2022-08-26T08:09:22.415Z,100847.47
2022-08-26T08:11:51.281Z,100846.81
2022-08-26T08:14:22.020Z,100849.13
2022-08-26T08:16:51.266Z,100848.78
2022-08-26T08:19:24.331Z,100846.06
2022-08-26T08:22:05.134Z,100839.03
2022-08-26T08:24:44.603Z,100843.22
2022-08-26T08:27:12.085Z,100841.34
2022-08-26T08:29:41.140Z,100841.16
2022-08-26T08:32:11.577Z,100837.47
2022-08-26T08:37:16.728Z,100835.59
2022-08-26T08:39:44.165Z,100828.75
2022-08-26T08:42:28.047Z,100825.19
2022-08-26T08:44:57.035Z,100826.88
2022-08-26T08:47:28.980Z,100821.97
2022-08-26T08:49:58.256Z,100821.50
2022-08-26T08:52:28.903Z,100809.31
2022-08-26T08:54:56.893Z,100812.88
2022-08-26T08:57:28.160Z,100817.03
2022-08-26T08:59:58.217Z,100808.13
2022-08-26T09:02:28.053Z,100813.50
2022-08-26T09:05:02.184Z,100811.28
2022-08-26T09:07:35.895Z,100814.16
2022-08-26T09:10:06.944Z,100812.47
2022-08-26T09:12:34.674Z,100807.94
2022-08-26T09:15:03.458Z,100806.25
2022-08-26T09:17:37.553Z,100809.88
2022-08-26T09:20:11.698Z,100811.22
2022-08-26T09:22:40.405Z,100806.47
2022-08-26T09:25:13.040Z,100808.13
2022-08-26T09:27:43.129Z,100808.31
2022-08-26T09:30:12.224Z,100809.34
2022-08-26T09:32:40.383Z,100812.56
2022-08-26T09:35:10.923Z,100810.75
2022-08-26T09:37:41.318Z,100800.78
2022-08-26T09:40:20.575Z,100800.78
2022-08-26T09:42:48.820Z,100793.19
2022-08-26T09:45:17.025Z,100801.06
2022-08-26T09:47:53.597Z,100788.63
2022-08-26T09:50:29.874Z,100785.94
2022-08-26T09:53:15.848Z,100791.50
2022-08-26T09:55:43.905Z,100786.56
2022-08-26T09:58:13.716Z,100782.88
2022-08-26T10:00:55.349Z,100773.59
2022-08-26T10:03:25.684Z,100778.03
2022-08-26T10:05:58.524Z,100769.31
2022-08-26T10:08:28.416Z,100765.19
2022-08-26T10:10:57.481Z,100765.84
2022-08-26T10:13:28.102Z,100749.03
2022-08-26T10:16:01.009Z,100745.97
2022-08-26T10:18:34.142Z,100734.22
2022-08-26T10:21:06.286Z,100739.22
2022-08-26T10:26:13.435Z,100719.59
2022-08-26T10:28:42.581Z,100726.94
2022-08-26T10:31:20.017Z,100713.66
2022-08-26T10:33:51.222Z,100718.19
2022-08-26T10:36:52.382Z,100708.53
2022-08-26T10:39:27.285Z,100702.97
2022-08-26T10:41:58.128Z,100693.56
2022-08-26T10:44:25.596Z,100694.19
2022-08-26T10:46:56.252Z,100694.38
2022-08-26T10:49:23.676Z,100701.91
2022-08-26T10:51:56.614Z,100693.28
2022-08-26T10:54:26.952Z,100684.94
2022-08-26T10:56:57.238Z,100684.13
2022-08-26T10:59:29.512Z,100679.28
2022-08-26T11:01:59.365Z,100668.69
2022-08-26T11:04:41.504Z,100671.56
2022-08-26T11:07:33.993Z,100667.22
2022-08-26T11:10:01.974Z,100660.13
2022-08-26T11:12:53.556Z,100657.00
2022-08-26T11:16:09.904Z,100659.88
2022-08-26T11:18:42.002Z,100665.25
2022-08-26T11:21:47.789Z,100669.81
2022-08-26T11:24:41.206Z,100660.25
2022-08-26T11:27:12.199Z,100659.41
2022-08-26T11:30:00.889Z,100647.63
2022-08-26T11:32:48.690Z,100639.72
2022-08-26T11:35:52.226Z,100654.84
2022-08-26T11:38:23.100Z,100658.59
2022-08-26T11:41:11.938Z,100674.75
2022-08-26T11:43:40.063Z,100667.69
2022-08-26T11:46:09.213Z,100661.28
2022-08-26T11:48:37.684Z,100632.84
2022-08-26T11:51:06.252Z,100662.66
2022-08-26T11:53:37.915Z,100673.25
2022-08-26T11:56:06.848Z,100685.72
2022-08-26T11:58:35.571Z,100685.91
2022-08-26T12:01:04.224Z,100690.47
2022-08-26T12:03:39.884Z,100696.03
2022-08-26T12:06:14.968Z,100695.84
2022-08-26T12:08:43.931Z,100675.50
2022-08-26T12:11:13.548Z,100641.53
2022-08-26T12:13:42.724Z,100637.16
2022-08-26T12:16:10.415Z,100633.63
2022-08-26T12:18:39.013Z,100630.75
2022-08-26T12:23:24.767Z,100616.63
2022-08-26T12:25:52.666Z,100604.19
2022-08-26T12:28:21.466Z,100615.78
2022-08-26T12:31:01.368Z,100615.59
2022-08-26T12:33:32.957Z,100596.94
2022-08-26T12:36:01.924Z,100600.44
2022-08-26T12:38:30.661Z,100623.03
2022-08-26T12:40:58.168Z,100629.06
2022-08-26T12:43:40.353Z,100625.53
2022-08-26T12:46:08.769Z,100609.38
2022-08-26T12:48:38.369Z,100616.84
2022-08-26T12:51:07.419Z,100625.72
2022-08-26T12:53:38.309Z,100641.06
2022-08-26T12:56:19.174Z,100664.25
2022-08-26T12:58:47.276Z,100680.44
2022-08-26T13:01:22.389Z,100688.50
2022-08-26T13:03:50.037Z,100692.25
2022-08-26T13:06:29.839Z,100697.63
2022-08-26T13:08:59.392Z,100694.06
2022-08-26T13:11:28.083Z,100679.97
2022-08-26T13:13:57.356Z,100685.53
2022-08-26T13:16:25.198Z,100672.06
2022-08-26T13:18:54.372Z,100661.31
2022-08-26T13:21:22.675Z,100645.31
2022-08-26T13:23:50.360Z,100627.53
2022-08-26T13:26:19.193Z,100619.44
2022-08-26T13:29:01.123Z,100632.06
2022-08-26T13:31:30.278Z,100623.16
2022-08-26T13:33:57.790Z,100618.41
2022-08-26T13:36:25.275Z,100619.44
2022-08-26T13:38:52.716Z,100627.53
2022-08-26T13:41:28.924Z,100626.47
2022-08-26T13:43:58.772Z,100627.53
2022-08-26T13:46:27.154Z,100622.31
2022-08-26T13:48:55.067Z,100616.75
2022-08-26T13:51:23.328Z,100620.44
2022-08-26T13:53:51.048Z,100615.06
2022-08-26T13:56:18.732Z,100608.84
2022-08-26T13:58:47.714Z,100617.75
2022-08-26T14:01:17.050Z,100616.94
2022-08-26T14:03:44.676Z,100622.31
2022-08-26T14:06:12.194Z,100631.22
2022-08-26T14:08:39.827Z,100661.66
2022-08-26T14:11:07.824Z,100689.81
2022-08-26T14:13:35.344Z,100686.94
2022-08-26T14:16:04.862Z,100682.38
2022-08-26T14:18:33.572Z,100669.09
2022-08-26T14:21:01.711Z,100677.38
2022-08-26T14:23:29.183Z,100709.69
2022-08-26T14:25:56.661Z,100723.16
2022-08-26T14:30:57.016Z,100719.63
2022-08-26T14:33:28.200Z,100720.63
2022-08-26T14:36:16.403Z,100722.50
2022-08-26T14:38:44.050Z,100703.84
2022-08-26T14:41:11.669Z,100685.16
2022-08-26T14:43:39.887Z,100686.84
2022-08-26T14:46:07.338Z,100669.03
2022-08-26T14:48:36.097Z,100639.59
2022-08-26T14:51:05.239Z,100646.84
2022-08-26T14:53:50.178Z,100651.56
2022-08-26T14:56:17.628Z,100642.28
2022-08-26T14:58:45.866Z,100643.31
2022-08-26T15:01:14.963Z,100626.34
2022-08-26T15:03:43.776Z,100620.97
2022-08-26T15:06:11.508Z,100618.25
2022-08-26T15:08:39.987Z,100616.56
2022-08-26T15:11:07.443Z,100614.91
2022-08-26T15:13:35.602Z,100617.59
2022-08-26T15:16:03.443Z,100608.69
2022-08-26T15:18:31.561Z,100612.19
2022-08-26T15:21:00.303Z,100611.38
2022-08-26T15:23:27.744Z,100617.59
2022-08-26T15:25:55.347Z,100631.06
2022-08-26T15:28:22.796Z,100618.63
2022-08-26T15:30:51.005Z,100614.25
2022-08-26T15:33:18.513Z,100611.56
2022-08-26T15:35:45.951Z,100614.25
2022-08-26T15:38:14.676Z,100622.34
2022-08-26T15:40:43.289Z,100610.75
2022-08-26T15:43:27.858Z,100607.22
2022-08-26T15:45:55.530Z,100601.84
2022-08-26T15:48:23.006Z,100595.59
2022-08-26T15:50:52.131Z,100582.13
2022-08-26T15:53:21.346Z,100562.47
2022-08-26T15:55:48.821Z,100549.19
2022-08-26T15:58:17.240Z,100537.59
2022-08-26T16:00:44.788Z,100531.16
2022-08-26T16:03:12.311Z,100537.59
2022-08-26T16:05:39.933Z,100546.50
2022-08-26T16:08:08.120Z,100537.59
2022-08-26T16:10:37.698Z,100550.00
2022-08-26T16:13:05.423Z,100554.75
2022-08-26T16:15:33.037Z,100566.34
2022-08-26T16:18:01.864Z,100571.56
2022-08-26T16:20:29.485Z,100574.44
2022-08-26T16:22:57.002Z,100574.44
2022-08-26T16:25:24.466Z,100564.53
2022-08-26T16:27:53.609Z,100555.81
2022-08-26T16:30:21.423Z,100558.50
2022-08-26T16:32:49.047Z,100550.41
2022-08-26T16:35:16.929Z,100548.75
2022-08-26T16:37:44.411Z,100561.19
2022-08-26T16:40:12.343Z,100575.66
2022-08-26T16:42:39.824Z,100571.28
2022-08-26T16:45:09.627Z,100576.66
2022-08-26T16:47:37.065Z,100586.41
2022-08-26T16:50:04.708Z,100590.78
2022-08-26T16:52:32.153Z,100587.44
2022-08-26T16:55:00.198Z,100585.59
2022-08-26T16:57:28.799Z,100591.81
2022-08-26T16:59:56.235Z,100586.59
2022-08-26T17:02:25.059Z,100583.09
2022-08-26T17:04:52.832Z,100584.75
2022-08-26T17:07:20.306Z,100588.47
2022-08-26T17:09:47.742Z,100589.50
2022-08-26T17:12:15.193Z,100585.78
2022-08-26T17:14:42.663Z,100586.78
2022-08-26T17:17:13.226Z,100584.94
2022-08-26T17:19:47.069Z,100579.75
2022-08-26T17:22:14.832Z,100588.66
2022-08-26T17:24:42.319Z,100590.53
2022-08-26T17:27:09.761Z,100589.66
2022-08-26T17:29:37.208Z,100593.22
2022-08-26T17:32:05.066Z,100588.84
2022-08-26T17:34:32.564Z,100584.28
2022-08-26T17:37:01.279Z,100589.84
2022-08-26T17:39:28.724Z,100582.63
2022-08-26T17:41:56.153Z,100574.75
2022-08-26T17:44:23.972Z,100563.97
2022-08-26T17:46:51.463Z,100567.69
2022-08-26T17:49:18.934Z,100561.28
2022-08-26T17:51:46.356Z,100567.69
2022-08-26T17:54:15.084Z,100555.25
2022-08-26T17:56:42.518Z,100549.88
2022-08-26T17:59:09.968Z,100560.66
2022-08-26T18:01:37.487Z,100548.00
2022-08-26T18:04:05.019Z,100551.53
2022-08-26T18:06:33.529Z,100553.56
2022-08-26T18:09:01.137Z,100557.97
2022-08-26T18:11:30.053Z,100557.09
2022-08-26T18:13:57.499Z,100562.47
2022-08-26T18:16:24.985Z,100569.69
2022-08-26T18:18:53.282Z,100564.31
2022-08-26T18:21:22.357Z,100561.81
2022-08-26T18:23:49.908Z,100562.63
2022-08-26T18:26:18.283Z,100553.75
2022-08-26T18:28:47.008Z,100551.88
2022-08-26T18:31:15.107Z,100546.66
2022-08-26T18:33:43.686Z,100542.16
2022-08-26T18:36:16.257Z,100543.97
2022-08-26T18:38:43.690Z,100539.63
2022-08-26T18:41:11.295Z,100546.66
2022-08-26T18:43:38.728Z,100541.50
2022-08-26T18:46:08.703Z,100531.56
2022-08-26T18:48:36.681Z,100536.94
2022-08-26T18:51:04.335Z,100531.56
2022-08-26T18:53:31.828Z,100532.75
2022-08-26T18:55:59.351Z,100534.44
2022-08-26T18:58:26.809Z,100539.81
2022-08-26T19:00:54.245Z,100536.31
2022-08-26T19:03:22.967Z,100541.69
2022-08-26T19:05:50.405Z,100542.50
2022-08-26T19:08:17.881Z,100541.50
2022-08-26T19:10:45.302Z,100543.53
2022-08-26T19:13:12.953Z,100547.25
2022-08-26T19:15:44.759Z,100556.97
2022-08-26T19:18:13.834Z,100566.75
2022-08-26T19:20:46.522Z,100570.44
2022-08-26T19:23:30.362Z,100570.44
2022-08-26T19:25:59.087Z,100580.19
2022-08-26T19:28:26.504Z,100590.31
2022-08-26T19:30:53.972Z,100596.53
2022-08-26T19:33:21.588Z,100597.34
2022-08-26T19:35:50.296Z,100603.78
2022-08-26T19:38:17.722Z,100597.53
2022-08-26T19:40:45.138Z,100608.28
2022-08-26T19:43:12.574Z,100601.25
2022-08-26T19:45:40.128Z,100606.66
2022-08-26T19:48:07.637Z,100605.59
2022-08-26T19:50:35.161Z,100604.78
2022-08-26T19:53:04.548Z,100596.88
2022-08-26T19:55:31.989Z,100601.25
2022-08-26T19:57:59.445Z,100600.63
2022-08-26T20:00:28.861Z,100596.06
2022-08-26T20:02:56.519Z,100602.47
2022-08-26T20:05:24.264Z,100606.84
2022-08-26T20:07:51.697Z,100613.03
2022-08-26T20:10:21.909Z,100614.91
2022-08-26T20:12:50.515Z,100622.97
2022-08-26T20:15:17.939Z,100615.91
2022-08-26T20:17:45.391Z,100627.53
2022-08-26T20:20:34.383Z,100634.75
2022-08-26T20:23:03.483Z,100642.81
2022-08-26T20:25:33.346Z,100646.38
2022-08-26T20:28:00.828Z,100639.47
2022-08-26T20:30:28.273Z,100646.56
2022-08-26T20:32:55.700Z,100646.56
2022-08-26T20:35:23.783Z,100650.25
2022-08-26T20:37:51.207Z,100636.78
2022-08-26T20:40:18.695Z,100639.47
2022-08-26T20:42:47.438Z,100635.16
2022-08-26T20:45:14.868Z,100635.78
2022-08-26T20:47:42.689Z,100632.44
2022-08-26T20:50:10.369Z,100637.84
2022-08-26T20:52:37.821Z,100648.59
2022-08-26T20:55:05.778Z,100649.41
2022-08-26T20:57:33.583Z,100653.13
2022-08-26T21:00:02.330Z,100656.66
2022-08-26T21:02:29.763Z,100665.56
2022-08-26T21:04:57.486Z,100662.06
2022-08-26T21:07:25.036Z,100659.53
2022-08-26T21:09:52.466Z,100663.88
2022-08-26T21:12:19.883Z,100656.00
2022-08-26T21:14:49.664Z,100651.47
2022-08-26T21:17:18.593Z,100651.66
2022-08-26T21:19:46.044Z,100645.22
2022-08-26T21:22:13.914Z,100650.63
2022-08-26T21:24:41.343Z,100644.41
2022-08-26T21:27:08.763Z,100637.16
2022-08-26T21:29:36.719Z,100638.19
2022-08-26T21:32:04.854Z,100638.19
2022-08-26T21:34:33.597Z,100636.50
2022-08-26T21:37:01.463Z,100633.81
2022-08-26T21:39:32.962Z,100638.19
2022-08-26T21:42:00.423Z,100635.50
2022-08-26T21:44:27.886Z,100625.75
2022-08-26T21:46:55.684Z,100631.13
2022-08-26T21:49:23.119Z,100633.81
2022-08-26T21:51:54.797Z,100630.13
2022-08-26T21:54:22.219Z,100636.50
2022-08-26T21:56:50.240Z,100636.50
2022-08-26T21:59:18.455Z,100630.31
2022-08-26T22:01:45.874Z,100625.75
2022-08-26T22:04:13.307Z,100617.84
2022-08-26T22:06:42.121Z,100611.66
2022-08-26T22:09:10.931Z,100617.03
2022-08-26T22:11:38.395Z,100613.34
2022-08-26T22:14:05.893Z,100607.97
2022-08-26T22:16:33.348Z,100600.88
2022-08-26T22:19:00.806Z,100582.25
2022-08-26T22:21:28.450Z,100576.84
2022-08-26T22:23:58.144Z,100576.84
2022-08-26T22:26:28.655Z,100573.16
2022-08-26T22:28:59.066Z,100576.84
2022-08-26T22:31:28.193Z,100569.63
2022-08-26T22:34:07.157Z,100572.31
2022-08-26T22:36:34.591Z,100566.91
2022-08-26T22:39:02.051Z,100561.53
2022-08-26T22:41:30.765Z,100551.63
2022-08-26T22:44:02.517Z,100535.69
2022-08-26T22:46:30.054Z,100542.94
2022-08-26T22:48:57.479Z,100533.00
2022-08-26T22:51:25.009Z,100533.00
2022-08-26T22:53:52.451Z,100544.75
2022-08-26T22:56:21.156Z,100543.75
2022-08-26T22:58:49.980Z,100555.34
2022-08-26T23:01:17.665Z,100551.81
2022-08-26T23:03:45.839Z,100562.59
2022-08-26T23:06:13.292Z,100566.09
2022-08-26T23:08:41.779Z,100566.09
2022-08-26T23:11:09.566Z,100562.59
2022-08-26T23:13:37.023Z,100560.91
2022-08-26T23:16:07.420Z,100552.81
2022-08-26T23:18:34.895Z,100547.44
2022-08-26T23:21:02.317Z,100545.78
2022-08-26T23:23:29.768Z,100545.78
2022-08-26T23:25:57.192Z,100559.25
2022-08-26T23:28:24.655Z,100566.28
2022-08-26T23:30:53.528Z,100564.44
2022-08-26T23:33:22.223Z,100568.16
2022-08-26T23:35:48.722Z,100574.34
2022-08-26T23:38:16.817Z,100574.34
2022-08-26T23:40:44.251Z,100575.41
2022-08-26T23:43:12.236Z,100585.28
2022-08-26T23:45:39.922Z,100578.91
2022-08-26T23:48:07.485Z,100583.47
2022-08-26T23:50:54.070Z,100579.09
2022-08-26T23:53:23.553Z,100583.47
2022-08-26T23:55:51.719Z,100588.84
2022-08-26T23:58:20.302Z,100572.88
